Terminal Aerodrome Forecast
Issued by NWS Detroit/Pontiac, MI

Home | Current Version | Previous Version | Text Only | Print | Product List | Glossary On
Versions: 1 2 3 4 5 6 7 8 9 10 11 12 13 14 15 16 17 18 19 20 21 22 23 24 25 26 27 28 29 30
119
FTUS43 KDTX 212058 AAA
TAFDTW
TAF AMD
KDTW 212058Z 2121/2224 08007KT 4SM -RA BR OVC060
      TEMPO 2121/2123 2SM RA BR OVC035
     FM220000 08007KT 4SM -SHRA BR SCT018 OVC023
      TEMPO 2203/2206 2SM TSRA BR SCT012 OVC018CB
     FM220600 VRB04KT 3SM -SHRA BR BKN008 OVC015
      TEMPO 2209/2212 2SM -DZ OVC008
     FM221400 28005KT 4SM BR OVC022=

USA.gov is the U.S. government's official web portal to all federal, state and local government web resources and services.